KSTJ/STJ METAR and TAF weather

Enter ICAO airport designator
Station Type Date Time Source
KSTJ METAR 2020/10/20 17:53 UTC NOAA

KSTJ 201753Z 00000KT 1 1/4SM BR OVC005 06/04 A3006 RMK AO2 RAB1658E08 CIG 004V009 SLP181 P0001 60001 T00610044 10061 20039 58012


Station Type Date Time Source
KSTJ Decoded METAR 2020/10/20 17:53 UTC NOAA

ROSECRANS MEMORIAL AIRPORT, MO, United States (KSTJ) 39-46N 94-55W 247M
Oct 20, 2020 - 01:53 PM EDT / 2020.10.20 1753 UTC
Wind: Calm:0
Visibility: 1 1/4 mile(s):0
Sky conditions: overcast
Weather: mist
Precipitation last hour: 0.01 inches
Temperature: 43.0 F (6.1 C)
Dew Point: 39.9 F (4.4 C)
Relative Humidity: 88%
Pressure (altimeter): 30.06 in. Hg (1017 hPa)
Pressure tendency: 0.04 inches (1.2 hPa) lower than three hours ago
ob: KSTJ 201753Z 00000KT 1 1/4SM BR OVC005 06/04 A3006 RMK AO2 RAB1658E08 CIG 004V009 SLP181 P0001 60001 T00610044 10061 20039 58012
cycle: 18

Station Type Date Time Source
KSTJ TAF 2020/10/20 18:24 UTC NOAA

TAF KSTJ 201721Z 2018/2118 15006KT P6SM OVC009
FM202100 18005KT P6SM OVC015
FM202300 00000KT P6SM BKN022
FM210100 00000KT P6SM BKN150

Example: see airport list